Terminal Aerodrome Forecast
Issued by NWS

Home | Current Version | Previous Version | Text Only | Print | Product List | Glossary On
Versions: 1 2 3 4 5 6 7 8 9 10 11 12 13 14 15 16 17 18
000
FTUS42 KMLB 061738
TAFSUA
TAF
KSUA 061738Z 0618/0718 09008KT P6SM VCTS SCT030CB BKN250
     FM062300 13004KT P6SM SCT030 BKN250
     FM070400 VRB03KT P6SM FEW025 SCT250
     FM071600 10009KT P6SM SCT035 SCT250=

USA.gov is the U.S. government's official web portal to all federal, state and local government web resources and services.